Time;durP1;ratioP1;P1;durP2;ratioP2;P2;SDS_P1;SDS_P2;PMS_P1;PMS_P2;Temp;Humidity;BMP_temperature;BMP_pressure;BME280_temperature;BME280_humidity;BME280_pressure;Samples;Min_cycle;Max_cycle;Signal;HPM_P1;HPM_P2
2021/07/16 00:00:58;;;;;;;;;;;18.50;97.70;;;;;;4276933;33;44931;-79
2021/07/16 00:03:33;;;;;;;;;;;18.50;97.70;;;;;;4288856;33;43169;-79
2021/07/16 00:06:20;;;;;;;;;;;18.50;97.70;;;;;;4277119;33;42757;-78
2021/07/16 00:08:53;;;;;;;;;;;18.50;97.70;;;;;;4276146;33;45821;-78
2021/07/16 00:11:27;;;;;;;;;;;18.40;97.60;;;;;;4288646;33;43853;-79
2021/07/16 00:14:02;;;;;;;;;;;18.50;97.60;;;;;;4276246;33;43527;-79
2021/07/16 00:16:34;;;;;;;;;;;18.40;97.60;;;;;;4276198;33;43738;-79
2021/07/16 00:19:02;;;;;;;;;;;18.40;97.60;;;;;;4274610;33;42510;-79
2021/07/16 00:21:32;;;;;;;;;;;18.40;97.60;;;;;;4275177;33;43391;-79
2021/07/16 00:24:03;;;;;;;;;;;18.40;97.60;;;;;;4288425;33;43470;-79
2021/07/16 00:26:32;;;;;;;;;;;18.50;97.70;;;;;;4276280;33;44202;-79
2021/07/16 00:29:02;;;;;;;;;;;18.40;97.60;;;;;;4275384;33;44668;-78
2021/07/16 00:31:30;;;;;;;;;;;18.40;97.60;;;;;;4275527;33;43398;-78
2021/07/16 00:33:58;;;;;;;;;;;18.40;97.60;;;;;;4288088;33;43241;-78
2021/07/16 00:36:25;;;;;;;;;;;18.40;97.60;;;;;;4273643;33;43432;-79
2021/07/16 00:38:52;;;;;;;;;;;18.40;97.60;;;;;;4286209;33;44086;-80
2021/07/16 00:41:25;;;;;;;;;;;18.40;97.60;;;;;;4274554;33;43765;-78
2021/07/16 00:43:52;;;;;;;;;;;18.40;97.60;;;;;;4287754;33;44125;-79
2021/07/16 00:46:19;;;;;;;;;;;18.40;97.60;;;;;;4288450;33;43234;-78
2021/07/16 00:48:46;;;;;;;;;;;18.40;97.60;;;;;;4288525;33;44240;-79
2021/07/16 00:51:19;;;;;;;;;;;18.40;97.60;;;;;;4275443;33;43234;-79
2021/07/16 00:53:52;;;;;;;;;;;18.40;97.60;;;;;;4288454;33;42334;-79
2021/07/16 00:56:22;;;;;;;;;;;18.40;97.60;;;;;;4288518;33;44251;-78
2021/07/16 00:58:55;;;;;;;;;;;18.40;97.60;;;;;;4275304;33;43564;-79
2021/07/16 01:01:24;;;;;;;;;;;18.40;97.60;;;;;;4287751;33;43455;-79
2021/07/16 01:03:57;;;;;;;;;;;18.40;97.60;;;;;;4275733;33;44025;-79
2021/07/16 01:06:28;;;;;;;;;;;18.40;97.60;;;;;;4275617;33;44226;-79
2021/07/16 01:09:01;;;;;;;;;;;18.40;97.60;;;;;;4275175;33;43496;-79
2021/07/16 01:11:28;;;;;;;;;;;18.40;97.50;;;;;;4288274;33;45915;-80
2021/07/16 01:14:01;;;;;;;;;;;18.40;97.50;;;;;;4275266;33;44103;-79
2021/07/16 01:16:33;;;;;;;;;;;18.40;97.60;;;;;;4274834;33;42959;-79
2021/07/16 01:19:07;;;;;;;;;;;18.40;97.60;;;;;;4274696;33;43505;-79
2021/07/16 01:21:40;;;;;;;;;;;18.30;97.60;;;;;;4274679;33;42551;-79
2021/07/16 01:24:16;;;;;;;;;;;18.40;97.50;;;;;;4274563;33;44435;-80
2021/07/16 01:26:48;;;;;;;;;;;18.40;97.50;;;;;;4287575;33;42850;-79
2021/07/16 01:29:21;;;;;;;;;;;18.40;97.50;;;;;;4287650;33;42277;-79
2021/07/16 01:31:51;;;;;;;;;;;18.30;97.50;;;;;;4288071;33;44187;-79
2021/07/16 01:34:20;;;;;;;;;;;18.40;97.50;;;;;;4275035;33;43953;-79
2021/07/16 01:36:47;;;;;;;;;;;18.40;97.50;;;;;;4287944;33;43286;-79
2021/07/16 01:39:16;;;;;;;;;;;18.40;97.50;;;;;;4287898;33;43869;-79
2021/07/16 01:41:52;;;;;;;;;;;18.40;97.50;;;;;;4287311;33;43991;-79
2021/07/16 01:44:26;;;;;;;;;;;18.40;97.50;;;;;;4287763;33;43998;-79
2021/07/16 01:46:58;;;;;;;;;;;18.30;97.50;;;;;;4275915;33;20006;-79
2021/07/16 01:49:31;;;;;;;;;;;18.30;97.40;;;;;;4274824;33;45055;-80
2021/07/16 01:52:03;;;;;;;;;;;18.30;97.40;;;;;;4287361;33;43341;-79
2021/07/16 01:54:31;;;;;;;;;;;18.30;97.40;;;;;;4274849;33;43896;-79
2021/07/16 01:57:03;;;;;;;;;;;18.30;97.40;;;;;;4274517;33;43643;-79
2021/07/16 01:59:33;;;;;;;;;;;18.30;97.40;;;;;;4287820;33;44240;-79
2021/07/16 02:02:06;;;;;;;;;;;18.30;97.40;;;;;;4287124;33;42851;-80
2021/07/16 02:04:41;;;;;;;;;;;18.30;97.40;;;;;;4274170;33;42514;-79
2021/07/16 02:07:16;;;;;;;;;;;18.30;97.40;;;;;;4274218;33;43051;-79
2021/07/16 02:09:54;;;;;;;;;;;18.30;97.40;;;;;;4274515;33;44065;-79
2021/07/16 02:12:30;;;;;;;;;;;18.20;97.30;;;;;;4274486;33;43906;-79
2021/07/16 02:15:04;;;;;;;;;;;18.30;97.40;;;;;;4287129;33;45059;-79
2021/07/16 02:17:39;;;;;;;;;;;18.30;97.40;;;;;;4288409;33;20061;-79
2021/07/16 02:20:17;;;;;;;;;;;18.20;97.30;;;;;;4274476;33;43470;-79
2021/07/16 02:22:56;;;;;;;;;;;18.30;97.30;;;;;;4273881;33;42682;-79
2021/07/16 02:25:27;;;;;;;;;;;18.20;97.30;;;;;;4287443;33;44747;-79
2021/07/16 02:28:01;;;;;;;;;;;18.30;97.30;;;;;;4274103;33;42972;-79
2021/07/16 02:30:31;;;;;;;;;;;18.20;97.30;;;;;;4287212;33;45217;-78
2021/07/16 02:33:05;;;;;;;;;;;18.30;97.30;;;;;;4273759;33;43027;-78
2021/07/16 02:35:37;;;;;;;;;;;18.20;97.20;;;;;;4287150;33;44294;-78
2021/07/16 02:38:12;;;;;;;;;;;18.20;97.20;;;;;;4287408;33;43910;-79
2021/07/16 02:40:45;;;;;;;;;;;18.20;97.30;;;;;;4287359;33;43737;-78
2021/07/16 02:43:18;;;;;;;;;;;18.20;97.20;;;;;;4286512;33;43070;-79
2021/07/16 02:45:50;;;;;;;;;;;18.20;97.20;;;;;;4274116;33;44214;-79
2021/07/16 02:48:22;;;;;;;;;;;18.20;97.30;;;;;;4287686;33;20010;-78
2021/07/16 02:50:55;;;;;;;;;;;18.20;97.30;;;;;;4287123;33;43573;-79
2021/07/16 02:53:24;;;;;;;;;;;18.20;97.30;;;;;;4287085;33;43290;-79
2021/07/16 02:55:59;;;;;;;;;;;18.20;97.30;;;;;;4287021;33;43469;-79
2021/07/16 02:58:32;;;;;;;;;;;18.20;97.30;;;;;;4274312;33;43823;-78
2021/07/16 03:01:01;;;;;;;;;;;18.20;97.30;;;;;;4286707;33;42279;-78
2021/07/16 03:03:40;;;;;;;;;;;18.20;97.20;;;;;;4274002;33;44276;-78
2021/07/16 03:06:13;;;;;;;;;;;18.20;97.20;;;;;;4274149;33;44272;-78
2021/07/16 03:08:46;;;;;;;;;;;18.10;97.20;;;;;;4286923;33;43782;-79
2021/07/16 03:11:21;;;;;;;;;;;18.10;97.20;;;;;;4286979;33;44097;-78
2021/07/16 03:13:53;;;;;;;;;;;18.10;97.20;;;;;;4287047;33;44739;-78
2021/07/16 03:16:28;;;;;;;;;;;18.10;97.20;;;;;;4287019;33;44184;-78
2021/07/16 03:19:04;;;;;;;;;;;18.10;97.20;;;;;;4275045;33;20002;-79
2021/07/16 03:21:31;;;;;;;;;;;18.20;97.20;;;;;;4273520;33;45073;-79
2021/07/16 03:24:04;;;;;;;;;;;18.10;97.20;;;;;;4273371;33;46014;-78
2021/07/16 03:26:38;;;;;;;;;;;18.10;97.20;;;;;;4286588;33;42865;-78
2021/07/16 03:29:13;;;;;;;;;;;18.10;97.20;;;;;;4286726;33;43217;-78
2021/07/16 03:31:46;;;;;;;;;;;18.10;97.20;;;;;;4286780;33;42953;-78
2021/07/16 03:34:19;;;;;;;;;;;18.10;97.20;;;;;;4286923;33;44179;-78
2021/07/16 03:36:57;;;;;;;;;;;18.10;97.20;;;;;;4286595;33;44278;-78
2021/07/16 03:39:30;;;;;;;;;;;18.10;97.20;;;;;;4273805;33;43503;-78
2021/07/16 03:42:05;;;;;;;;;;;18.10;97.20;;;;;;4274022;33;42606;-78
2021/07/16 03:44:40;;;;;;;;;;;18.10;97.10;;;;;;4273655;33;44220;-79
2021/07/16 03:47:16;;;;;;;;;;;18.10;97.10;;;;;;4286908;33;43528;-78
2021/07/16 03:49:45;;;;;;;;;;;18.10;97.10;;;;;;4286163;33;43269;-79
2021/07/16 03:52:21;;;;;;;;;;;18.10;97.10;;;;;;4273865;33;44301;-78
2021/07/16 03:54:53;;;;;;;;;;;18.10;97.50;;;;;;4286630;33;43474;-79
2021/07/16 03:57:26;;;;;;;;;;;18.10;97.10;;;;;;4288737;33;43811;-78
2021/07/16 04:00:02;;;;;;;;;;;18.10;97.10;;;;;;4275992;33;42701;-78
2021/07/16 04:02:34;;;;;;;;;;;18.10;97.10;;;;;;4275424;33;45495;-79
2021/07/16 04:05:09;;;;;;;;;;;18.10;97.10;;;;;;4276080;33;44207;-79
2021/07/16 04:07:49;;;;;;;;;;;18.10;97.10;;;;;;4275758;33;42902;-79
2021/07/16 04:10:20;;;;;;;;;;;18.10;97.10;;;;;;4275828;33;42458;-79
2021/07/16 04:12:55;;;;;;;;;;;18.10;97.10;;;;;;4288919;33;44087;-79
2021/07/16 04:15:25;;;;;;;;;;;18.10;97.10;;;;;;4276054;33;44161;-79
2021/07/16 04:17:59;;;;;;;;;;;18.10;97.10;;;;;;4289095;33;44083;-79
2021/07/16 04:20:34;;;;;;;;;;;18.00;97.00;;;;;;4289030;33;43889;-79
2021/07/16 04:23:09;;;;;;;;;;;18.10;97.10;;;;;;4288451;33;42880;-79
2021/07/16 04:25:44;;;;;;;;;;;18.00;97.10;;;;;;4276026;33;44056;-79
2021/07/16 04:28:16;;;;;;;;;;;18.10;97.10;;;;;;4275938;33;44216;-79
2021/07/16 04:30:49;;;;;;;;;;;18.00;97.00;;;;;;4288382;33;43064;-79
2021/07/16 04:33:22;;;;;;;;;;;18.10;97.10;;;;;;4288570;33;43275;-79
2021/07/16 04:35:55;;;;;;;;;;;18.00;97.10;;;;;;4288619;33;43113;-79
2021/07/16 04:38:27;;;;;;;;;;;18.00;97.10;;;;;;4275337;33;43473;-79
2021/07/16 04:41:00;;;;;;;;;;;18.00;97.00;;;;;;4288419;33;42981;-79
2021/07/16 04:43:30;;;;;;;;;;;18.10;97.00;;;;;;4275573;33;42883;-78
2021/07/16 04:46:02;;;;;;;;;;;18.00;97.00;;;;;;4275703;33;43124;-78
2021/07/16 04:48:38;;;;;;;;;;;18.00;97.00;;;;;;4288514;33;43734;-79
2021/07/16 04:51:13;;;;;;;;;;;18.00;97.00;;;;;;4289562;33;20046;-79
2021/07/16 04:53:45;;;;;;;;;;;18.00;97.00;;;;;;4288550;33;43991;-79
2021/07/16 04:56:18;;;;;;;;;;;18.00;97.00;;;;;;4275638;33;43316;-79
2021/07/16 04:58:50;;;;;;;;;;;18.00;97.00;;;;;;4275579;33;43002;-79
2021/07/16 05:01:24;;;;;;;;;;;18.00;97.00;;;;;;4274956;33;43027;-79
2021/07/16 05:03:57;;;;;;;;;;;18.00;97.00;;;;;;4272352;33;42249;-79
2021/07/16 05:06:29;;;;;;;;;;;18.00;97.00;;;;;;4273922;33;43272;-79
2021/07/16 05:08:59;;;;;;;;;;;18.00;97.00;;;;;;4272800;33;45075;-79
2021/07/16 05:11:37;;;;;;;;;;;18.00;97.00;;;;;;4273331;33;43346;-79
2021/07/16 05:14:09;;;;;;;;;;;18.00;97.00;;;;;;4273886;33;43651;-78
2021/07/16 05:16:45;;;;;;;;;;;18.00;97.00;;;;;;4273842;33;45366;-79
2021/07/16 05:19:19;;;;;;;;;;;18.00;97.00;;;;;;4272665;33;43471;-79
2021/07/16 05:21:52;;;;;;;;;;;18.00;97.00;;;;;;4273692;33;19999;-78
2021/07/16 05:24:28;;;;;;;;;;;18.00;97.00;;;;;;4272238;33;42755;-78
2021/07/16 05:27:00;;;;;;;;;;;18.00;97.00;;;;;;4273645;33;44232;-79
2021/07/16 05:29:33;;;;;;;;;;;18.00;97.00;;;;;;4272625;33;43132;-78
2021/07/16 05:32:06;;;;;;;;;;;18.00;97.00;;;;;;4273567;33;43873;-79
2021/07/16 05:34:41;;;;;;;;;;;18.00;97.00;;;;;;4273607;33;43270;-79
2021/07/16 05:37:13;;;;;;;;;;;18.00;97.00;;;;;;4272535;33;43958;-79
2021/07/16 05:39:43;;;;;;;;;;;18.00;97.00;;;;;;4273910;33;43955;-80
2021/07/16 05:42:13;;;;;;;;;;;18.00;97.00;;;;;;4273146;33;44131;-78
2021/07/16 05:44:46;;;;;;;;;;;17.90;97.00;;;;;;4273393;33;44862;-78
2021/07/16 05:47:18;;;;;;;;;;;18.00;97.00;;;;;;4273411;33;44157;-78
2021/07/16 05:49:47;;;;;;;;;;;18.00;97.00;;;;;;4272871;33;43094;-78
2021/07/16 05:52:22;;;;;;;;;;;18.00;97.00;;;;;;4272863;33;19999;-78
2021/07/16 05:54:56;;;;;;;;;;;18.00;97.00;;;;;;4272396;33;43538;-78
2021/07/16 05:57:28;;;;;;;;;;;18.00;97.00;;;;;;4272220;33;45394;-79
2021/07/16 05:59:58;;;;;;;;;;;18.00;97.00;;;;;;4273250;33;44824;-79
2021/07/16 06:02:26;;;;;;;;;;;18.00;97.00;;;;;;4277822;33;43871;-79
2021/07/16 06:04:58;;;;;;;;;;;17.90;97.00;;;;;;4274074;33;45598;-79
2021/07/16 06:07:31;;;;;;;;;;;17.90;97.00;;;;;;4287447;33;44606;-78
2021/07/16 06:10:04;;;;;;;;;;;17.90;97.00;;;;;;4287027;33;42522;-79
2021/07/16 06:12:40;;;;;;;;;;;17.90;97.00;;;;;;4274032;33;43320;-78
2021/07/16 06:15:12;;;;;;;;;;;17.90;97.00;;;;;;4274032;33;42697;-78
2021/07/16 06:17:48;;;;;;;;;;;17.90;97.00;;;;;;4274016;33;44070;-78
2021/07/16 06:20:20;;;;;;;;;;;17.90;97.00;;;;;;4273693;33;43183;-78
2021/07/16 06:22:55;;;;;;;;;;;17.90;97.00;;;;;;4274902;33;20034;-79
2021/07/16 06:25:28;;;;;;;;;;;17.90;96.90;;;;;;4274299;33;44274;-79
2021/07/16 06:27:58;;;;;;;;;;;17.90;97.30;;;;;;4286812;33;44271;-79
2021/07/16 06:30:31;;;;;;;;;;;17.90;96.90;;;;;;4286808;33;43421;-78
2021/07/16 06:33:03;;;;;;;;;;;17.90;96.90;;;;;;4274277;33;44220;-78
2021/07/16 06:35:39;;;;;;;;;;;17.90;96.90;;;;;;4287129;33;42740;-78
2021/07/16 06:38:12;;;;;;;;;;;17.90;96.90;;;;;;4286803;33;44280;-78
2021/07/16 06:40:50;;;;;;;;;;;17.90;96.90;;;;;;4274302;33;44013;-78
2021/07/16 06:43:22;;;;;;;;;;;17.80;96.90;;;;;;4274234;33;44034;-78
2021/07/16 06:45:55;;;;;;;;;;;17.80;96.90;;;;;;4287241;33;43265;-78
2021/07/16 06:48:28;;;;;;;;;;;17.80;96.90;;;;;;4286994;33;43787;-79
2021/07/16 06:50:58;;;;;;;;;;;17.80;96.90;;;;;;4273950;33;44264;-78
2021/07/16 06:53:31;;;;;;;;;;;17.80;96.90;;;;;;4287946;33;20010;-78
2021/07/16 06:56:00;;;;;;;;;;;17.90;96.90;;;;;;4286790;33;43029;-78
2021/07/16 06:58:27;;;;;;;;;;;17.80;96.90;;;;;;4286972;33;43987;-78
2021/07/16 07:00:57;;;;;;;;;;;17.80;96.90;;;;;;4286791;33;45244;-78
2021/07/16 07:03:30;;;;;;;;;;;17.80;96.90;;;;;;4286376;33;43489;-78
2021/07/16 07:06:01;;;;;;;;;;;17.80;96.90;;;;;;4273917;33;43897;-78
2021/07/16 07:08:34;;;;;;;;;;;17.80;96.90;;;;;;4273801;33;43004;-78
2021/07/16 07:11:09;;;;;;;;;;;17.80;96.80;;;;;;4286995;33;43278;-78
2021/07/16 07:13:38;;;;;;;;;;;17.80;96.80;;;;;;4286451;33;42886;-78
2021/07/16 07:16:08;;;;;;;;;;;17.80;96.80;;;;;;4274180;33;43275;-78
2021/07/16 07:18:41;;;;;;;;;;;17.80;96.80;;;;;;4286749;33;43519;-78
2021/07/16 07:21:14;;;;;;;;;;;17.80;96.80;;;;;;4274198;33;43281;-79
2021/07/16 07:23:44;;;;;;;;;;;17.80;96.80;;;;;;4288023;33;20460;-78
2021/07/16 07:26:19;;;;;;;;;;;17.80;96.80;;;;;;4273461;33;42906;-78
2021/07/16 07:28:49;;;;;;;;;;;17.80;96.80;;;;;;4286555;33;43059;-78
2021/07/16 07:31:22;;;;;;;;;;;17.80;96.80;;;;;;4288735;33;45064;-78
2021/07/16 07:33:55;;;;;;;;;;;17.80;96.80;;;;;;4276614;33;43356;-78
2021/07/16 07:36:32;;;;;;;;;;;17.80;96.80;;;;;;4277086;33;43523;-78
2021/07/16 07:39:05;;;;;;;;;;;17.80;96.80;;;;;;4276782;33;43479;-78
2021/07/16 07:41:38;;;;;;;;;;;17.80;96.80;;;;;;4276719;33;43478;-78
2021/07/16 07:44:05;;;;;;;;;;;17.80;96.80;;;;;;4289571;33;43518;-78
2021/07/16 07:46:34;;;;;;;;;;;17.70;96.80;;;;;;4289287;33;44197;-78
2021/07/16 07:49:10;;;;;;;;;;;17.80;96.80;;;;;;4276432;33;44101;-78
2021/07/16 07:51:48;;;;;;;;;;;17.70;96.70;;;;;;4289339;33;43605;-78
2021/07/16 07:54:16;;;;;;;;;;;17.70;96.80;;;;;;4289995;33;19994;-78
2021/07/16 07:56:45;;;;;;;;;;;17.70;96.80;;;;;;4288797;33;43516;-78
2021/07/16 07:59:15;;;;;;;;;;;17.70;96.70;;;;;;4289151;33;44329;-78
2021/07/16 08:01:45;;;;;;;;;;;17.70;96.80;;;;;;4288941;33;44129;-79
2021/07/16 08:04:18;;;;;;;;;;;17.70;96.70;;;;;;4275982;33;42668;-78
2021/07/16 08:06:50;;;;;;;;;;;17.70;96.70;;;;;;4289067;33;42675;-78
2021/07/16 08:09:29;;;;;;;;;;;17.70;96.70;;;;;;4289266;33;43247;-79
2021/07/16 08:12:02;;;;;;;;;;;17.70;96.80;;;;;;4276126;33;43470;-79
2021/07/16 08:14:30;;;;;;;;;;;17.70;96.80;;;;;;4288709;33;44230;-79
2021/07/16 08:17:00;;;;;;;;;;;17.70;96.80;;;;;;4289137;33;43478;-78
2021/07/16 08:19:35;;;;;;;;;;;17.70;96.80;;;;;;4275993;33;43957;-78
2021/07/16 08:22:09;;;;;;;;;;;17.70;96.70;;;;;;4289006;33;43610;-78
2021/07/16 08:24:42;;;;;;;;;;;17.70;96.70;;;;;;4277057;33;20003;-79
2021/07/16 08:27:15;;;;;;;;;;;17.70;96.70;;;;;;4276051;33;44093;-78
2021/07/16 08:29:45;;;;;;;;;;;17.70;96.70;;;;;;4275705;33;42657;-78
2021/07/16 08:32:19;;;;;;;;;;;17.70;96.70;;;;;;4276248;33;43971;-78
2021/07/16 08:34:52;;;;;;;;;;;17.70;96.80;;;;;;4275730;33;42764;-79
2021/07/16 08:37:19;;;;;;;;;;;17.70;96.80;;;;;;4288966;33;43870;-79
2021/07/16 08:39:46;;;;;;;;;;;17.70;96.70;;;;;;4288746;33;43225;-79
2021/07/16 08:42:15;;;;;;;;;;;17.70;96.80;;;;;;4287806;33;44288;-80
2021/07/16 08:44:48;;;;;;;;;;;17.70;96.80;;;;;;4288209;33;42285;-78
2021/07/16 08:47:19;;;;;;;;;;;17.70;96.80;;;;;;4275594;33;43988;-78
2021/07/16 08:49:51;;;;;;;;;;;17.70;96.80;;;;;;4288102;33;43841;-78
2021/07/16 08:52:24;;;;;;;;;;;17.70;96.80;;;;;;4288151;33;44501;-78
2021/07/16 08:54:55;;;;;;;;;;;17.70;96.80;;;;;;4276208;33;20033;-78
2021/07/16 08:57:31;;;;;;;;;;;17.70;96.80;;;;;;4275091;33;43049;-78
2021/07/16 09:00:01;;;;;;;;;;;17.70;96.80;;;;;;4287937;33;42534;-79
2021/07/16 09:02:35;;;;;;;;;;;17.70;96.80;;;;;;4287923;33;44151;-78
2021/07/16 09:05:10;;;;;;;;;;;17.70;96.80;;;;;;4275379;33;43325;-79
2021/07/16 09:07:43;;;;;;;;;;;17.70;96.80;;;;;;4274955;33;43076;-79
2021/07/16 09:10:20;;;;;;;;;;;17.70;96.80;;;;;;4287916;33;43474;-78
2021/07/16 09:12:58;;;;;;;;;;;17.70;96.80;;;;;;4275171;33;44384;-77
2021/07/16 09:15:30;;;;;;;;;;;17.70;96.80;;;;;;4287926;33;43521;-78
2021/07/16 09:18:12;;;;;;;;;;;17.70;97.20;;;;;;4288304;33;45194;-78
2021/07/16 09:20:42;;;;;;;;;;;17.70;96.80;;;;;;4287988;33;44707;-78
2021/07/16 09:23:16;;;;;;;;;;;17.70;96.80;;;;;;4288061;33;43566;-79
2021/07/16 09:26:01;;;;;;;;;;;17.70;96.80;;;;;;4288783;33;20396;-78
2021/07/16 09:28:33;;;;;;;;;;;17.70;96.80;;;;;;4288155;33;43231;-78
2021/07/16 09:31:30;;;;;;;;;;;17.70;96.90;;;;;;4275085;33;41976;-78
2021/07/16 09:34:00;;;;;;;;;;;17.70;96.80;;;;;;4273557;33;44136;-78
2021/07/16 09:36:37;;;;;;;;;;;17.70;96.80;;;;;;4288056;33;41525;-78
2021/07/16 09:39:10;;;;;;;;;;;17.70;96.80;;;;;;4275015;33;43219;-79
2021/07/16 09:41:51;;;;;;;;;;;17.70;96.80;;;;;;4287652;33;44527;-80
2021/07/16 09:44:26;;;;;;;;;;;17.70;96.80;;;;;;4274742;33;43001;-79
2021/07/16 09:47:18;;;;;;;;;;;17.70;96.80;;;;;;4274509;33;43229;-78
2021/07/16 09:50:06;;;;;;;;;;;17.70;96.80;;;;;;4287684;33;43446;-78
2021/07/16 09:52:33;;;;;;;;;;;17.70;96.80;;;;;;4285649;33;42795;-79
2021/07/16 09:55:11;;;;;;;;;;;17.70;96.80;;;;;;4274276;33;43360;-79
2021/07/16 09:57:40;;;;;;;;;;;17.70;96.80;;;;;;4287511;33;43791;-79
2021/07/16 10:00:12;;;;;;;;;;;17.70;96.80;;;;;;4274405;33;43090;-79
2021/07/16 10:02:39;;;;;;;;;;;17.70;96.80;;;;;;4274158;33;43342;-79
2021/07/16 10:05:12;;;;;;;;;;;17.70;96.80;;;;;;4287514;33;44682;-79
2021/07/16 10:07:47;;;;;;;;;;;17.70;96.80;;;;;;4287665;33;43264;-79
2021/07/16 10:10:18;;;;;;;;;;;17.70;96.80;;;;;;4287414;33;42956;-79
2021/07/16 10:12:46;;;;;;;;;;;17.70;96.80;;;;;;4283873;33;42984;-79
2021/07/16 10:15:14;;;;;;;;;;;17.70;96.80;;;;;;4274276;33;44048;-79
2021/07/16 10:17:41;;;;;;;;;;;17.70;96.80;;;;;;4286796;33;44100;-79
2021/07/16 10:20:13;;;;;;;;;;;17.70;96.80;;;;;;4287036;33;44114;-79
2021/07/16 10:22:41;;;;;;;;;;;17.70;96.80;;;;;;4287096;33;43278;-79
2021/07/16 10:25:11;;;;;;;;;;;17.70;96.80;;;;;;4286890;33;43254;-79
2021/07/16 10:27:45;;;;;;;;;;;17.70;96.80;;;;;;4287179;33;43435;-79
2021/07/16 10:30:15;;;;;;;;;;;17.70;96.80;;;;;;4270996;33;42653;-79
2021/07/16 10:32:43;;;;;;;;;;;17.70;96.80;;;;;;4274048;33;44642;-79
2021/07/16 10:35:14;;;;;;;;;;;17.70;96.80;;;;;;4273691;33;42930;-79
2021/07/16 10:37:41;;;;;;;;;;;17.70;96.80;;;;;;4274117;33;44150;-79
2021/07/16 10:40:09;;;;;;;;;;;17.70;96.80;;;;;;4286988;33;44660;-79
2021/07/16 10:42:40;;;;;;;;;;;17.70;96.80;;;;;;4288330;33;20026;-79
2021/07/16 10:45:08;;;;;;;;;;;17.70;96.80;;;;;;4273814;33;42840;-79
2021/07/16 10:47:38;;;;;;;;;;;17.70;96.80;;;;;;4287205;33;44245;-79
2021/07/16 10:50:10;;;;;;;;;;;17.70;97.10;;;;;;4286894;33;44205;-79
2021/07/16 10:52:44;;;;;;;;;;;17.70;96.80;;;;;;4287073;33;43312;-79
2021/07/16 10:55:11;;;;;;;;;;;17.80;96.80;;;;;;4286838;33;43296;-79
2021/07/16 10:57:43;;;;;;;;;;;17.70;96.80;;;;;;4274658;33;20002;-79
2021/07/16 11:00:30;;;;;;;;;;;17.80;96.80;;;;;;4286848;33;42535;-80
2021/07/16 11:03:10;;;;;;;;;;;17.80;96.80;;;;;;4273199;33;43507;-79
2021/07/16 11:05:42;;;;;;;;;;;17.80;96.80;;;;;;4288312;33;46146;-79
2021/07/16 11:08:27;;;;;;;;;;;17.80;96.70;;;;;;4277103;33;43484;-80
2021/07/16 11:11:01;;;;;;;;;;;17.80;96.70;;;;;;4290789;33;20113;-80
2021/07/16 11:13:34;;;;;;;;;;;17.80;96.70;;;;;;4289765;33;44316;-80
2021/07/16 11:16:34;;;;;;;;;;;17.80;96.70;;;;;;4289782;33;43615;-80
2021/07/16 11:19:04;;;;;;;;;;;17.80;96.70;;;;;;4289857;33;43631;-80
2021/07/16 11:21:47;;;;;;;;;;;17.80;96.70;;;;;;4289591;33;43372;-80
2021/07/16 11:26:55;;;;;;;;;;;17.80;96.70;;;;;;4289725;33;43138;-79
2021/07/16 11:29:24;;;;;;;;;;;17.80;96.70;;;;;;4277768;33;20041;-80
2021/07/16 11:32:14;;;;;;;;;;;17.80;96.60;;;;;;4289703;33;45851;-80
2021/07/16 11:34:47;;;;;;;;;;;17.80;96.60;;;;;;4289639;33;44272;-80
2021/07/16 11:37:36;;;;;;;;;;;17.80;96.60;;;;;;4276839;33;45126;-80
2021/07/16 11:40:09;;;;;;;;;;;17.80;96.60;;;;;;4289569;33;43294;-80
2021/07/16 11:42:45;;;;;;;;;;;17.80;96.60;;;;;;4276726;33;43203;-79
2021/07/16 11:45:17;;;;;;;;;;;17.80;96.60;;;;;;4289008;33;42594;-80
2021/07/16 11:47:56;;;;;;;;;;;17.80;96.60;;;;;;4289085;33;44144;-80
2021/07/16 11:50:28;;;;;;;;;;;17.80;96.60;;;;;;4289090;33;42925;-80
2021/07/16 11:52:58;;;;;;;;;;;17.80;96.60;;;;;;4276468;33;41883;-81
2021/07/16 11:55:29;;;;;;;;;;;17.80;96.60;;;;;;4288882;33;43549;-80
2021/07/16 11:58:02;;;;;;;;;;;17.80;96.60;;;;;;4289332;33;44164;-80
2021/07/16 12:00:32;;;;;;;;;;;17.80;96.60;;;;;;4289989;33;20035;-80
2021/07/16 12:03:01;;;;;;;;;;;17.80;96.60;;;;;;4288843;33;42512;-80
2021/07/16 12:05:33;;;;;;;;;;;17.80;96.60;;;;;;4289035;33;44278;-80
2021/07/16 12:08:09;;;;;;;;;;;17.80;96.60;;;;;;4289221;33;44286;-79
2021/07/16 12:10:41;;;;;;;;;;;17.90;96.60;;;;;;4289326;33;43264;-80
2021/07/16 12:13:11;;;;;;;;;;;17.90;96.60;;;;;;4288579;33;42860;-80
2021/07/16 12:15:39;;;;;;;;;;;17.80;96.50;;;;;;4276141;33;41417;-80
2021/07/16 12:18:08;;;;;;;;;;;17.90;96.50;;;;;;4288202;33;43766;-79
2021/07/16 12:20:39;;;;;;;;;;;17.80;96.50;;;;;;4275558;33;44359;-79
2021/07/16 12:23:08;;;;;;;;;;;17.90;96.50;;;;;;4289013;33;45835;-79
2021/07/16 12:25:37;;;;;;;;;;;17.80;96.50;;;;;;4275740;33;43959;-81
2021/07/16 12:28:17;;;;;;;;;;;17.80;96.50;;;;;;4288662;33;43918;-79
2021/07/16 12:30:45;;;;;;;;;;;17.90;96.50;;;;;;4288934;33;20062;-80
2021/07/16 12:33:13;;;;;;;;;;;17.90;96.50;;;;;;4288390;33;43954;-80
2021/07/16 12:35:44;;;;;;;;;;;17.90;96.50;;;;;;4288508;33;42386;-81
2021/07/16 12:38:15;;;;;;;;;;;17.90;96.50;;;;;;4276330;33;44041;-79
2021/07/16 12:40:48;;;;;;;;;;;17.80;96.80;;;;;;4275746;33;42836;-79
2021/07/16 12:43:21;;;;;;;;;;;17.90;96.50;;;;;;4275787;33;43273;-79
2021/07/16 12:45:57;;;;;;;;;;;17.90;96.50;;;;;;4275701;33;45027;-80
2021/07/16 12:48:33;;;;;;;;;;;17.90;96.40;;;;;;4288784;33;43890;-80
2021/07/16 12:51:03;;;;;;;;;;;17.90;96.40;;;;;;4288143;33;43191;-80
2021/07/16 12:53:32;;;;;;;;;;;17.90;96.40;;;;;;4288045;33;43572;-80
2021/07/16 12:56:35;;;;;;;;;;;17.90;96.40;;;;;;4288105;33;43769;-80
2021/07/16 12:59:21;;;;;;;;;;;17.90;96.40;;;;;;4252665;33;43453;-80
2021/07/16 13:01:52;;;;;;;;;;;17.90;96.40;;;;;;4274589;33;44506;-81
2021/07/16 13:04:22;;;;;;;;;;;17.90;96.40;;;;;;4287051;33;45073;-81
2021/07/16 13:06:54;;;;;;;;;;;17.90;96.40;;;;;;4274827;33;42246;-81
2021/07/16 13:09:39;;;;;;;;;;;17.90;96.40;;;;;;4275268;33;44214;-80
2021/07/16 13:12:17;;;;;;;;;;;17.90;96.40;;;;;;4275444;33;44601;-81
2021/07/16 13:14:49;;;;;;;;;;;17.90;96.40;;;;;;4287554;33;44640;-79
2021/07/16 13:17:16;;;;;;;;;;;17.90;96.30;;;;;;4287110;33;43865;-82
2021/07/16 13:19:43;;;;;;;;;;;17.90;96.30;;;;;;4286355;33;43518;-82
2021/07/16 13:22:13;;;;;;;;;;;17.90;96.30;;;;;;4274955;33;43634;-81
2021/07/16 13:24:50;;;;;;;;;;;17.90;96.30;;;;;;4287692;33;43125;-80
2021/07/16 13:27:20;;;;;;;;;;;17.90;96.30;;;;;;4287785;33;42890;-81
2021/07/16 13:29:47;;;;;;;;;;;17.90;96.30;;;;;;4274427;33;43458;-81
2021/07/16 13:32:14;;;;;;;;;;;17.90;96.30;;;;;;4287663;33;42980;-82
2021/07/16 13:34:48;;;;;;;;;;;17.90;96.30;;;;;;4274744;33;43840;-81
2021/07/16 13:37:26;;;;;;;;;;;18.00;96.30;;;;;;4287720;33;43267;-81
2021/07/16 13:39:54;;;;;;;;;;;17.90;96.20;;;;;;4287948;33;43930;-80
2021/07/16 13:42:27;;;;;;;;;;;18.00;96.30;;;;;;4274340;33;43393;-81
2021/07/16 13:44:55;;;;;;;;;;;18.00;96.30;;;;;;4287832;33;44065;-81
2021/07/16 13:47:22;;;;;;;;;;;18.00;96.20;;;;;;4273905;33;43043;-82
2021/07/16 13:49:52;;;;;;;;;;;18.00;96.30;;;;;;4285994;33;43070;-81
2021/07/16 13:52:22;;;;;;;;;;;17.90;96.20;;;;;;4286938;33;42476;-81
2021/07/16 13:54:54;;;;;;;;;;;18.00;96.30;;;;;;4286806;33;43263;-82
2021/07/16 13:57:22;;;;;;;;;;;18.00;96.20;;;;;;4274867;33;43982;-81
2021/07/16 13:59:54;;;;;;;;;;;18.00;96.20;;;;;;4287253;33;43056;-81
2021/07/16 14:02:30;;;;;;;;;;;18.00;96.20;;;;;;4275097;33;20007;-81
2021/07/16 14:05:02;;;;;;;;;;;18.00;96.20;;;;;;4274761;33;43479;-81
2021/07/16 14:07:40;;;;;;;;;;;18.00;96.20;;;;;;4287480;33;43920;-82
2021/07/16 14:10:15;;;;;;;;;;;18.00;96.20;;;;;;4274573;33;44182;-81
2021/07/16 14:12:48;;;;;;;;;;;18.00;96.20;;;;;;4287538;33;45605;-80
2021/07/16 14:15:18;;;;;;;;;;;18.00;96.20;;;;;;4274456;33;45697;-81
2021/07/16 14:17:53;;;;;;;;;;;18.00;96.20;;;;;;4287356;33;42684;-81
2021/07/16 14:20:28;;;;;;;;;;;18.00;96.20;;;;;;4287756;33;43274;-81
2021/07/16 14:22:55;;;;;;;;;;;18.00;96.10;;;;;;4286939;33;42985;-82
2021/07/16 14:25:30;;;;;;;;;;;18.00;96.10;;;;;;4286901;33;45051;-81
2021/07/16 14:27:59;;;;;;;;;;;18.00;96.10;;;;;;4287257;33;42980;-80
2021/07/16 14:30:30;;;;;;;;;;;18.00;96.10;;;;;;4286748;33;43818;-81
2021/07/16 14:33:04;;;;;;;;;;;18.00;96.10;;;;;;4287882;33;20002;-81
2021/07/16 14:35:35;;;;;;;;;;;18.00;96.10;;;;;;4287307;33;43276;-81
2021/07/16 14:38:07;;;;;;;;;;;18.00;96.10;;;;;;4274163;33;43764;-80
2021/07/16 14:40:39;;;;;;;;;;;18.10;96.10;;;;;;4273876;33;43136;-81
2021/07/16 14:43:11;;;;;;;;;;;18.10;96.10;;;;;;4274215;33;43555;-81
2021/07/16 14:45:41;;;;;;;;;;;18.00;96.10;;;;;;4287004;33;44349;-81
2021/07/16 14:48:11;;;;;;;;;;;18.00;96.10;;;;;;4286878;33;44275;-81
2021/07/16 14:50:38;;;;;;;;;;;18.00;96.10;;;;;;4286954;33;44073;-81